sensor_id;sensor_type;location;lat;lon;timestamp;temperature;humidity
38209;DHT22;24016;52.102;11.584;2022-08-21T00:00:46;16.60;99.90
38209;DHT22;24016;52.102;11.584;2022-08-21T00:03:13;16.70;99.90
38209;DHT22;24016;52.102;11.584;2022-08-21T00:05:42;16.60;99.90
38209;DHT22;24016;52.102;11.584;2022-08-21T00:08:09;16.60;99.90
38209;DHT22;24016;52.102;11.584;2022-08-21T00:10:34;16.60;99.90
38209;DHT22;24016;52.102;11.584;2022-08-21T00:13:02;16.60;99.90
38209;DHT22;24016;52.102;11.584;2022-08-21T00:15:30;16.60;99.90
38209;DHT22;24016;52.102;11.584;2022-08-21T00:17:56;16.60;99.90
38209;DHT22;24016;52.102;11.584;2022-08-21T00:20:22;16.60;99.90
38209;DHT22;24016;52.102;11.584;2022-08-21T00:22:48;16.50;99.90
38209;DHT22;24016;52.102;11.584;2022-08-21T00:25:15;16.50;99.90
38209;DHT22;24016;52.102;11.584;2022-08-21T00:27:41;16.50;99.90
38209;DHT22;24016;52.102;11.584;2022-08-21T00:30:08;16.50;99.90
38209;DHT22;24016;52.102;11.584;2022-08-21T00:32:35;16.40;99.90
38209;DHT22;24016;52.102;11.584;2022-08-21T00:35:01;16.40;99.90
38209;DHT22;24016;52.102;11.584;2022-08-21T00:37:27;16.40;99.90
38209;DHT22;24016;52.102;11.584;2022-08-21T00:39:53;16.40;99.90
38209;DHT22;24016;52.102;11.584;2022-08-21T00:42:19;16.40;99.90
38209;DHT22;24016;52.102;11.584;2022-08-21T00:44:46;16.50;99.90
38209;DHT22;24016;52.102;11.584;2022-08-21T00:47:13;16.50;99.90
38209;DHT22;24016;52.102;11.584;2022-08-21T00:49:40;16.50;99.90
38209;DHT22;24016;52.102;11.584;2022-08-21T00:52:08;16.50;99.90
38209;DHT22;24016;52.102;11.584;2022-08-21T00:54:34;16.50;99.90
38209;DHT22;24016;52.102;11.584;2022-08-21T00:57:04;16.50;99.90
38209;DHT22;24016;52.102;11.584;2022-08-21T00:59:35;16.50;99.90
38209;DHT22;24016;52.102;11.584;2022-08-21T01:02:02;16.50;99.90
38209;DHT22;24016;52.102;11.584;2022-08-21T01:04:28;16.50;99.90
38209;DHT22;24016;52.102;11.584;2022-08-21T01:06:54;16.50;99.90
38209;DHT22;24016;52.102;11.584;2022-08-21T01:09:20;16.50;99.90
38209;DHT22;24016;52.102;11.584;2022-08-21T01:11:46;16.50;99.90
38209;DHT22;24016;52.102;11.584;2022-08-21T01:14:13;16.40;99.90
38209;DHT22;24016;52.102;11.584;2022-08-21T01:16:41;16.30;99.90
38209;DHT22;24016;52.102;11.584;2022-08-21T01:19:09;16.30;99.90
38209;DHT22;24016;52.102;11.584;2022-08-21T01:21:34;16.20;99.90
38209;DHT22;24016;52.102;11.584;2022-08-21T01:24:00;16.20;99.90
38209;DHT22;24016;52.102;11.584;2022-08-21T01:26:28;16.20;99.90
38209;DHT22;24016;52.102;11.584;2022-08-21T01:29:00;16.20;99.90
38209;DHT22;24016;52.102;11.584;2022-08-21T01:31:27;16.20;99.90
38209;DHT22;24016;52.102;11.584;2022-08-21T01:36:29;16.20;99.90
38209;DHT22;24016;52.102;11.584;2022-08-21T01:38:55;16.20;99.90
38209;DHT22;24016;52.102;11.584;2022-08-21T01:41:20;16.20;99.90
38209;DHT22;24016;52.102;11.584;2022-08-21T01:43:47;16.20;99.90
38209;DHT22;24016;52.102;11.584;2022-08-21T01:46:13;16.20;99.90
38209;DHT22;24016;52.102;11.584;2022-08-21T01:48:39;16.30;99.90
38209;DHT22;24016;52.102;11.584;2022-08-21T01:51:05;16.30;99.90
38209;DHT22;24016;52.102;11.584;2022-08-21T01:53:33;16.30;99.90
38209;DHT22;24016;52.102;11.584;2022-08-21T01:56:02;16.30;99.90
38209;DHT22;24016;52.102;11.584;2022-08-21T01:58:28;16.40;99.90
38209;DHT22;24016;52.102;11.584;2022-08-21T02:00:54;16.40;99.90
38209;DHT22;24016;52.102;11.584;2022-08-21T02:03:20;16.40;99.90
38209;DHT22;24016;52.102;11.584;2022-08-21T02:05:45;16.40;99.90
38209;DHT22;24016;52.102;11.584;2022-08-21T02:08:11;16.40;99.90
38209;DHT22;24016;52.102;11.584;2022-08-21T02:10:37;16.40;99.90
38209;DHT22;24016;52.102;11.584;2022-08-21T02:13:02;16.30;99.90
38209;DHT22;24016;52.102;11.584;2022-08-21T02:15:29;16.30;99.90
38209;DHT22;24016;52.102;11.584;2022-08-21T02:17:57;16.20;99.90
38209;DHT22;24016;52.102;11.584;2022-08-21T02:20:44;16.20;99.90
38209;DHT22;24016;52.102;11.584;2022-08-21T02:23:11;16.20;99.90
38209;DHT22;24016;52.102;11.584;2022-08-21T02:25:37;16.20;99.90
38209;DHT22;24016;52.102;11.584;2022-08-21T02:28:09;16.20;99.90
38209;DHT22;24016;52.102;11.584;2022-08-21T02:30:40;16.20;99.90
38209;DHT22;24016;52.102;11.584;2022-08-21T02:33:06;16.10;99.90
38209;DHT22;24016;52.102;11.584;2022-08-21T02:35:33;16.00;99.90
38209;DHT22;24016;52.102;11.584;2022-08-21T02:38:01;15.90;99.90
38209;DHT22;24016;52.102;11.584;2022-08-21T02:40:31;15.90;99.90
38209;DHT22;24016;52.102;11.584;2022-08-21T02:42:58;15.80;99.90
38209;DHT22;24016;52.102;11.584;2022-08-21T02:45:25;15.70;99.90
38209;DHT22;24016;52.102;11.584;2022-08-21T02:47:59;15.50;99.90
38209;DHT22;24016;52.102;11.584;2022-08-21T02:50:28;15.50;99.90
38209;DHT22;24016;52.102;11.584;2022-08-21T02:52:54;15.50;99.90
38209;DHT22;24016;52.102;11.584;2022-08-21T02:55:25;15.40;99.90
38209;DHT22;24016;52.102;11.584;2022-08-21T02:57:52;15.40;99.90
38209;DHT22;24016;52.102;11.584;2022-08-21T03:00:20;15.30;99.90
38209;DHT22;24016;52.102;11.584;2022-08-21T03:02:47;15.20;99.90
38209;DHT22;24016;52.102;11.584;2022-08-21T03:05:13;15.20;99.90
38209;DHT22;24016;52.102;11.584;2022-08-21T03:07:41;15.10;99.90
38209;DHT22;24016;52.102;11.584;2022-08-21T03:10:08;15.10;99.90
38209;DHT22;24016;52.102;11.584;2022-08-21T03:12:34;15.00;99.90
38209;DHT22;24016;52.102;11.584;2022-08-21T03:15:02;15.00;99.90
38209;DHT22;24016;52.102;11.584;2022-08-21T03:17:28;14.90;99.90
38209;DHT22;24016;52.102;11.584;2022-08-21T03:19:53;14.80;99.90
38209;DHT22;24016;52.102;11.584;2022-08-21T03:22:19;14.80;99.90
38209;DHT22;24016;52.102;11.584;2022-08-21T03:24:44;14.70;99.90
38209;DHT22;24016;52.102;11.584;2022-08-21T03:27:10;14.70;99.90
38209;DHT22;24016;52.102;11.584;2022-08-21T03:29:38;14.60;99.90
38209;DHT22;24016;52.102;11.584;2022-08-21T03:32:04;14.60;99.90
38209;DHT22;24016;52.102;11.584;2022-08-21T03:34:29;14.50;99.90
38209;DHT22;24016;52.102;11.584;2022-08-21T03:36:55;14.50;99.90
38209;DHT22;24016;52.102;11.584;2022-08-21T03:39:20;14.40;99.90
38209;DHT22;24016;52.102;11.584;2022-08-21T03:41:46;14.40;99.90
38209;DHT22;24016;52.102;11.584;2022-08-21T03:44:12;14.30;99.90
38209;DHT22;24016;52.102;11.584;2022-08-21T03:46:38;14.30;99.90
38209;DHT22;24016;52.102;11.584;2022-08-21T03:49:05;14.30;99.90
38209;DHT22;24016;52.102;11.584;2022-08-21T03:51:31;14.20;99.90
38209;DHT22;24016;52.102;11.584;2022-08-21T03:53:59;14.30;99.90
38209;DHT22;24016;52.102;11.584;2022-08-21T03:56:24;14.20;99.90
38209;DHT22;24016;52.102;11.584;2022-08-21T03:58:50;14.20;99.90
38209;DHT22;24016;52.102;11.584;2022-08-21T04:01:15;14.10;99.90
38209;DHT22;24016;52.102;11.584;2022-08-21T04:03:41;14.00;99.90
38209;DHT22;24016;52.102;11.584;2022-08-21T04:06:07;14.00;99.90
38209;DHT22;24016;52.102;11.584;2022-08-21T04:08:33;13.90;99.90
38209;DHT22;24016;52.102;11.584;2022-08-21T04:11:00;13.90;99.90
38209;DHT22;24016;52.102;11.584;2022-08-21T04:13:26;13.90;99.90
38209;DHT22;24016;52.102;11.584;2022-08-21T04:15:54;13.80;99.90
38209;DHT22;24016;52.102;11.584;2022-08-21T04:18:20;13.80;99.90
38209;DHT22;24016;52.102;11.584;2022-08-21T04:20:48;13.70;99.90
38209;DHT22;24016;52.102;11.584;2022-08-21T04:23:14;13.70;99.90
38209;DHT22;24016;52.102;11.584;2022-08-21T04:25:40;13.70;99.90
38209;DHT22;24016;52.102;11.584;2022-08-21T04:28:06;13.70;99.90
38209;DHT22;24016;52.102;11.584;2022-08-21T04:30:31;13.80;99.90
38209;DHT22;24016;52.102;11.584;2022-08-21T04:32:58;13.80;99.90
38209;DHT22;24016;52.102;11.584;2022-08-21T04:35:24;13.80;99.90
38209;DHT22;24016;52.102;11.584;2022-08-21T04:37:50;13.80;99.90
38209;DHT22;24016;52.102;11.584;2022-08-21T04:40:17;13.90;99.90
38209;DHT22;24016;52.102;11.584;2022-08-21T04:42:49;13.90;99.90
38209;DHT22;24016;52.102;11.584;2022-08-21T04:45:35;13.90;99.90
38209;DHT22;24016;52.102;11.584;2022-08-21T04:48:04;13.90;99.90
38209;DHT22;24016;52.102;11.584;2022-08-21T04:50:39;13.90;99.90
38209;DHT22;24016;52.102;11.584;2022-08-21T04:53:08;13.90;99.90
38209;DHT22;24016;52.102;11.584;2022-08-21T04:55:35;13.90;99.90
38209;DHT22;24016;52.102;11.584;2022-08-21T04:58:04;13.90;99.90
38209;DHT22;24016;52.102;11.584;2022-08-21T05:00:29;13.90;99.90
38209;DHT22;24016;52.102;11.584;2022-08-21T05:02:57;13.90;99.90
38209;DHT22;24016;52.102;11.584;2022-08-21T05:05:24;13.90;99.90
38209;DHT22;24016;52.102;11.584;2022-08-21T05:07:51;13.90;99.90
38209;DHT22;24016;52.102;11.584;2022-08-21T05:10:18;13.90;99.90
38209;DHT22;24016;52.102;11.584;2022-08-21T05:12:45;14.00;99.90
38209;DHT22;24016;52.102;11.584;2022-08-21T05:15:11;14.00;99.90
38209;DHT22;24016;52.102;11.584;2022-08-21T05:17:38;14.00;99.90
38209;DHT22;24016;52.102;11.584;2022-08-21T05:20:04;14.10;99.90
38209;DHT22;24016;52.102;11.584;2022-08-21T05:22:30;14.10;99.90
38209;DHT22;24016;52.102;11.584;2022-08-21T05:24:57;14.10;99.90
38209;DHT22;24016;52.102;11.584;2022-08-21T05:27:22;14.20;99.90
38209;DHT22;24016;52.102;11.584;2022-08-21T05:29:48;14.30;99.90
38209;DHT22;24016;52.102;11.584;2022-08-21T05:32:14;14.40;99.90
38209;DHT22;24016;52.102;11.584;2022-08-21T05:34:40;14.50;99.90
38209;DHT22;24016;52.102;11.584;2022-08-21T05:37:06;14.60;99.90
38209;DHT22;24016;52.102;11.584;2022-08-21T05:39:31;14.80;99.90
38209;DHT22;24016;52.102;11.584;2022-08-21T05:41:57;14.90;99.90
38209;DHT22;24016;52.102;11.584;2022-08-21T05:44:23;15.00;99.90
38209;DHT22;24016;52.102;11.584;2022-08-21T05:46:48;15.20;99.90
38209;DHT22;24016;52.102;11.584;2022-08-21T05:49:14;15.20;99.90
38209;DHT22;24016;52.102;11.584;2022-08-21T05:51:40;15.20;99.90
38209;DHT22;24016;52.102;11.584;2022-08-21T05:54:06;15.30;99.90
38209;DHT22;24016;52.102;11.584;2022-08-21T05:56:32;15.30;99.90
38209;DHT22;24016;52.102;11.584;2022-08-21T05:58:58;15.30;99.90
38209;DHT22;24016;52.102;11.584;2022-08-21T06:01:24;15.30;99.90
38209;DHT22;24016;52.102;11.584;2022-08-21T06:03:49;15.40;99.90
38209;DHT22;24016;52.102;11.584;2022-08-21T06:06:15;15.40;99.90
38209;DHT22;24016;52.102;11.584;2022-08-21T06:08:41;15.50;99.90
38209;DHT22;24016;52.102;11.584;2022-08-21T06:11:07;15.50;99.90
38209;DHT22;24016;52.102;11.584;2022-08-21T06:13:33;15.60;99.90
38209;DHT22;24016;52.102;11.584;2022-08-21T06:16:10;15.70;99.90
38209;DHT22;24016;52.102;11.584;2022-08-21T06:18:37;15.70;99.90
38209;DHT22;24016;52.102;11.584;2022-08-21T06:21:03;15.80;99.90
38209;DHT22;24016;52.102;11.584;2022-08-21T06:23:29;15.90;99.90
38209;DHT22;24016;52.102;11.584;2022-08-21T06:25:54;15.90;99.90
38209;DHT22;24016;52.102;11.584;2022-08-21T06:28:20;16.00;99.90
38209;DHT22;24016;52.102;11.584;2022-08-21T06:30:45;16.10;99.90
38209;DHT22;24016;52.102;11.584;2022-08-21T06:33:11;16.20;99.90
38209;DHT22;24016;52.102;11.584;2022-08-21T06:35:37;16.30;99.90
38209;DHT22;24016;52.102;11.584;2022-08-21T06:38:03;16.40;99.90
38209;DHT22;24016;52.102;11.584;2022-08-21T06:40:29;16.60;99.90
38209;DHT22;24016;52.102;11.584;2022-08-21T06:42:56;16.70;99.90
38209;DHT22;24016;52.102;11.584;2022-08-21T06:45:22;16.80;99.90
38209;DHT22;24016;52.102;11.584;2022-08-21T06:47:47;16.90;99.90
38209;DHT22;24016;52.102;11.584;2022-08-21T06:50:13;17.00;99.90
38209;DHT22;24016;52.102;11.584;2022-08-21T06:52:39;17.10;99.90
38209;DHT22;24016;52.102;11.584;2022-08-21T06:55:07;17.20;99.90
38209;DHT22;24016;52.102;11.584;2022-08-21T06:57:33;17.30;99.90
38209;DHT22;24016;52.102;11.584;2022-08-21T06:59:58;17.40;99.90
38209;DHT22;24016;52.102;11.584;2022-08-21T07:02:24;17.50;99.90
38209;DHT22;24016;52.102;11.584;2022-08-21T07:04:50;17.60;99.90
38209;DHT22;24016;52.102;11.584;2022-08-21T07:07:16;17.70;99.90
38209;DHT22;24016;52.102;11.584;2022-08-21T07:09:42;17.80;99.90
38209;DHT22;24016;52.102;11.584;2022-08-21T07:12:08;18.00;99.90
38209;DHT22;24016;52.102;11.584;2022-08-21T07:14:34;18.10;99.90
38209;DHT22;24016;52.102;11.584;2022-08-21T07:16:59;18.20;99.90
38209;DHT22;24016;52.102;11.584;2022-08-21T07:19:25;18.20;99.90
38209;DHT22;24016;52.102;11.584;2022-08-21T07:21:53;18.20;99.90
38209;DHT22;24016;52.102;11.584;2022-08-21T07:24:20;18.30;99.90
38209;DHT22;24016;52.102;11.584;2022-08-21T07:26:45;18.50;99.90
38209;DHT22;24016;52.102;11.584;2022-08-21T07:29:11;18.70;99.90
38209;DHT22;24016;52.102;11.584;2022-08-21T07:31:37;18.80;99.90
38209;DHT22;24016;52.102;11.584;2022-08-21T07:34:02;18.80;99.90
38209;DHT22;24016;52.102;11.584;2022-08-21T07:36:28;18.90;99.90
38209;DHT22;24016;52.102;11.584;2022-08-21T07:38:54;19.00;99.90
38209;DHT22;24016;52.102;11.584;2022-08-21T07:41:24;19.20;99.90
38209;DHT22;24016;52.102;11.584;2022-08-21T07:43:50;19.30;99.90
38209;DHT22;24016;52.102;11.584;2022-08-21T07:46:16;19.40;99.90
38209;DHT22;24016;52.102;11.584;2022-08-21T07:48:41;19.40;99.90
38209;DHT22;24016;52.102;11.584;2022-08-21T07:51:10;19.40;99.90
38209;DHT22;24016;52.102;11.584;2022-08-21T07:53:36;19.60;99.90
38209;DHT22;24016;52.102;11.584;2022-08-21T07:56:03;19.90;99.90
38209;DHT22;24016;52.102;11.584;2022-08-21T07:58:30;20.00;99.90
38209;DHT22;24016;52.102;11.584;2022-08-21T08:00:56;20.00;99.90
38209;DHT22;24016;52.102;11.584;2022-08-21T08:03:21;20.30;99.90
38209;DHT22;24016;52.102;11.584;2022-08-21T08:05:47;21.00;99.90
38209;DHT22;24016;52.102;11.584;2022-08-21T08:08:13;21.50;99.90
38209;DHT22;24016;52.102;11.584;2022-08-21T08:10:38;22.10;99.90
38209;DHT22;24016;52.102;11.584;2022-08-21T08:13:04;21.90;99.90
38209;DHT22;24016;52.102;11.584;2022-08-21T08:15:30;22.50;99.90
38209;DHT22;24016;52.102;11.584;2022-08-21T08:17:56;22.90;99.90
38209;DHT22;24016;52.102;11.584;2022-08-21T08:20:23;22.80;99.90
38209;DHT22;24016;52.102;11.584;2022-08-21T08:22:50;23.20;99.90
38209;DHT22;24016;52.102;11.584;2022-08-21T08:25:18;23.50;99.90
38209;DHT22;24016;52.102;11.584;2022-08-21T08:27:44;23.00;99.90
38209;DHT22;24016;52.102;11.584;2022-08-21T08:30:12;23.30;99.90
38209;DHT22;24016;52.102;11.584;2022-08-21T08:32:38;23.30;99.90
38209;DHT22;24016;52.102;11.584;2022-08-21T08:35:05;23.70;99.90
38209;DHT22;24016;52.102;11.584;2022-08-21T08:37:32;24.50;99.90
38209;DHT22;24016;52.102;11.584;2022-08-21T08:39:58;24.30;99.90
38209;DHT22;24016;52.102;11.584;2022-08-21T08:42:29;24.00;99.90
38209;DHT22;24016;52.102;11.584;2022-08-21T08:47:37;24.70;99.90
38209;DHT22;24016;52.102;11.584;2022-08-21T08:50:08;25.50;99.90
38209;DHT22;24016;52.102;11.584;2022-08-21T08:52:48;24.50;99.90
38209;DHT22;24016;52.102;11.584;2022-08-21T08:55:17;25.10;99.90
38209;DHT22;24016;52.102;11.584;2022-08-21T08:57:46;26.00;99.90
38209;DHT22;24016;52.102;11.584;2022-08-21T09:00:14;25.90;99.30
38209;DHT22;24016;52.102;11.584;2022-08-21T09:02:42;26.20;99.50
38209;DHT22;24016;52.102;11.584;2022-08-21T09:19:27;26.70;99.00
38209;DHT22;24016;52.102;11.584;2022-08-21T09:25:03;25.50;99.80
38209;DHT22;24016;52.102;11.584;2022-08-21T09:27:36;25.10;99.90
38209;DHT22;24016;52.102;11.584;2022-08-21T09:30:06;26.20;99.90
38209;DHT22;24016;52.102;11.584;2022-08-21T09:32:34;26.30;98.40
38209;DHT22;24016;52.102;11.584;2022-08-21T09:35:16;26.30;98.50
38209;DHT22;24016;52.102;11.584;2022-08-21T09:37:56;27.10;98.80
38209;DHT22;24016;52.102;11.584;2022-08-21T09:43:22;27.90;96.80
38209;DHT22;24016;52.102;11.584;2022-08-21T09:46:26;27.50;96.80
38209;DHT22;24016;52.102;11.584;2022-08-21T09:48:55;26.80;96.50
38209;DHT22;24016;52.102;11.584;2022-08-21T09:51:32;27.50;96.80
38209;DHT22;24016;52.102;11.584;2022-08-21T09:56:38;27.90;98.30
38209;DHT22;24016;52.102;11.584;2022-08-21T09:59:34;28.20;95.90
38209;DHT22;24016;52.102;11.584;2022-08-21T10:02:03;28.30;96.90
38209;DHT22;24016;52.102;11.584;2022-08-21T10:04:34;28.40;95.80
38209;DHT22;24016;52.102;11.584;2022-08-21T10:07:09;28.40;95.30
38209;DHT22;24016;52.102;11.584;2022-08-21T10:09:36;27.60;95.60
38209;DHT22;24016;52.102;11.584;2022-08-21T10:12:20;26.90;97.10
38209;DHT22;24016;52.102;11.584;2022-08-21T10:20:17;27.50;97.60
38209;DHT22;24016;52.102;11.584;2022-08-21T10:23:02;27.90;95.40
38209;DHT22;24016;52.102;11.584;2022-08-21T10:25:44;28.40;95.50
38209;DHT22;24016;52.102;11.584;2022-08-21T10:28:36;29.40;93.50
38209;DHT22;24016;52.102;11.584;2022-08-21T10:31:10;29.80;93.70
38209;DHT22;24016;52.102;11.584;2022-08-21T10:33:51;29.50;92.80
38209;DHT22;24016;52.102;11.584;2022-08-21T10:36:23;29.30;93.70
38209;DHT22;24016;52.102;11.584;2022-08-21T10:39:14;29.90;92.50
38209;DHT22;24016;52.102;11.584;2022-08-21T10:47:46;27.20;93.90
38209;DHT22;24016;52.102;11.584;2022-08-21T10:50:39;27.40;93.50
38209;DHT22;24016;52.102;11.584;2022-08-21T10:53:28;26.50;94.70
38209;DHT22;24016;52.102;11.584;2022-08-21T10:56:02;27.00;95.80
38209;DHT22;24016;52.102;11.584;2022-08-21T10:58:37;27.10;94.20
38209;DHT22;24016;52.102;11.584;2022-08-21T11:01:12;27.10;95.60
38209;DHT22;24016;52.102;11.584;2022-08-21T11:03:42;28.10;95.10
38209;DHT22;24016;52.102;11.584;2022-08-21T11:06:20;29.40;92.60
38209;DHT22;24016;52.102;11.584;2022-08-21T11:08:51;30.40;92.20
38209;DHT22;24016;52.102;11.584;2022-08-21T11:14:09;30.50;90.20
38209;DHT22;24016;52.102;11.584;2022-08-21T11:16:44;29.70;90.50
38209;DHT22;24016;52.102;11.584;2022-08-21T11:19:18;31.30;89.30
38209;DHT22;24016;52.102;11.584;2022-08-21T11:22:11;32.40;88.60
38209;DHT22;24016;52.102;11.584;2022-08-21T11:24:43;33.20;88.90
38209;DHT22;24016;52.102;11.584;2022-08-21T11:27:27;32.70;85.90
38209;DHT22;24016;52.102;11.584;2022-08-21T11:29:59;31.90;85.50
38209;DHT22;24016;52.102;11.584;2022-08-21T11:32:50;30.20;87.00
38209;DHT22;24016;52.102;11.584;2022-08-21T11:43:41;27.80;89.10
38209;DHT22;24016;52.102;11.584;2022-08-21T11:46:14;28.40;89.30
38209;DHT22;24016;52.102;11.584;2022-08-21T11:51:42;27.60;90.50
38209;DHT22;24016;52.102;11.584;2022-08-21T11:54:15;26.50;90.40
38209;DHT22;24016;52.102;11.584;2022-08-21T11:56:48;26.30;93.00
38209;DHT22;24016;52.102;11.584;2022-08-21T11:59:31;27.20;92.10
38209;DHT22;24016;52.102;11.584;2022-08-21T12:01:58;27.20;91.80
38209;DHT22;24016;52.102;11.584;2022-08-21T12:04:44;27.90;90.40
38209;DHT22;24016;52.102;11.584;2022-08-21T12:07:13;29.10;90.10
38209;DHT22;24016;52.102;11.584;2022-08-21T12:09:40;29.10;88.40
38209;DHT22;24016;52.102;11.584;2022-08-21T12:12:22;29.00;86.90
38209;DHT22;24016;52.102;11.584;2022-08-21T12:14:51;28.30;88.50
38209;DHT22;24016;52.102;11.584;2022-08-21T12:17:34;27.60;88.70
38209;DHT22;24016;52.102;11.584;2022-08-21T12:25:41;28.70;90.80
38209;DHT22;24016;52.102;11.584;2022-08-21T12:28:10;29.60;88.30
38209;DHT22;24016;52.102;11.584;2022-08-21T12:30:40;29.40;87.80
38209;DHT22;24016;52.102;11.584;2022-08-21T12:35:44;30.20;87.50
38209;DHT22;24016;52.102;11.584;2022-08-21T12:38:46;31.30;85.90
38209;DHT22;24016;52.102;11.584;2022-08-21T12:41:18;29.50;85.80
38209;DHT22;24016;52.102;11.584;2022-08-21T12:43:56;30.40;87.10
38209;DHT22;24016;52.102;11.584;2022-08-21T12:46:31;32.30;83.50
38209;DHT22;24016;52.102;11.584;2022-08-21T12:49:03;31.80;84.90
38209;DHT22;24016;52.102;11.584;2022-08-21T12:51:56;32.00;81.90
38209;DHT22;24016;52.102;11.584;2022-08-21T12:54:29;33.50;82.30
38209;DHT22;24016;52.102;11.584;2022-08-21T12:57:03;32.80;80.20
38209;DHT22;24016;52.102;11.584;2022-08-21T12:59:30;32.60;81.10
38209;DHT22;24016;52.102;11.584;2022-08-21T13:01:57;33.30;80.50
38209;DHT22;24016;52.102;11.584;2022-08-21T13:04:33;33.30;79.40
38209;DHT22;24016;52.102;11.584;2022-08-21T13:07:01;32.10;81.50
38209;DHT22;24016;52.102;11.584;2022-08-21T13:09:30;30.50;81.10
38209;DHT22;24016;52.102;11.584;2022-08-21T13:11:57;29.00;83.90
38209;DHT22;24016;52.102;11.584;2022-08-21T13:14:35;28.40;85.30
38209;DHT22;24016;52.102;11.584;2022-08-21T13:17:04;27.80;85.30
38209;DHT22;24016;52.102;11.584;2022-08-21T13:19:30;28.20;86.80
38209;DHT22;24016;52.102;11.584;2022-08-21T13:21:57;28.30;85.70
38209;DHT22;24016;52.102;11.584;2022-08-21T13:24:25;28.20;85.40
38209;DHT22;24016;52.102;11.584;2022-08-21T13:26:52;28.00;85.60
38209;DHT22;24016;52.102;11.584;2022-08-21T13:29:21;27.40;87.50
38209;DHT22;24016;52.102;11.584;2022-08-21T13:31:56;27.60;88.10
38209;DHT22;24016;52.102;11.584;2022-08-21T13:34:25;27.50;87.50
38209;DHT22;24016;52.102;11.584;2022-08-21T13:36:54;28.20;86.80
38209;DHT22;24016;52.102;11.584;2022-08-21T13:39:21;27.60;87.70
38209;DHT22;24016;52.102;11.584;2022-08-21T13:41:49;27.80;89.10
38209;DHT22;24016;52.102;11.584;2022-08-21T13:46:48;27.20;88.90
38209;DHT22;24016;52.102;11.584;2022-08-21T13:49:17;27.20;89.10
38209;DHT22;24016;52.102;11.584;2022-08-21T13:51:44;27.20;88.20
38209;DHT22;24016;52.102;11.584;2022-08-21T13:54:36;27.00;90.40
38209;DHT22;24016;52.102;11.584;2022-08-21T13:57:02;27.00;89.10
38209;DHT22;24016;52.102;11.584;2022-08-21T13:59:34;26.70;90.00
38209;DHT22;24016;52.102;11.584;2022-08-21T14:02:10;26.70;90.50
38209;DHT22;24016;52.102;11.584;2022-08-21T14:04:44;27.00;90.60
38209;DHT22;24016;52.102;11.584;2022-08-21T14:07:52;27.00;89.70
38209;DHT22;24016;52.102;11.584;2022-08-21T14:10:19;27.00;90.10
38209;DHT22;24016;52.102;11.584;2022-08-21T14:12:55;27.10;89.80
38209;DHT22;24016;52.102;11.584;2022-08-21T14:15:27;26.70;89.80
38209;DHT22;24016;52.102;11.584;2022-08-21T14:17:54;27.00;90.60
38209;DHT22;24016;52.102;11.584;2022-08-21T14:20:34;26.60;90.00
38209;DHT22;24016;52.102;11.584;2022-08-21T14:23:00;26.30;90.00
38209;DHT22;24016;52.102;11.584;2022-08-21T14:25:27;26.30;90.80
38209;DHT22;24016;52.102;11.584;2022-08-21T14:30:33;26.50;90.60
38209;DHT22;24016;52.102;11.584;2022-08-21T14:33:00;26.40;90.80
38209;DHT22;24016;52.102;11.584;2022-08-21T14:35:26;26.20;90.90
38209;DHT22;24016;52.102;11.584;2022-08-21T14:37:52;26.40;91.40
38209;DHT22;24016;52.102;11.584;2022-08-21T14:40:21;26.60;90.90
38209;DHT22;24016;52.102;11.584;2022-08-21T14:42:47;26.30;91.10
38209;DHT22;24016;52.102;11.584;2022-08-21T14:45:25;26.40;91.20
38209;DHT22;24016;52.102;11.584;2022-08-21T14:47:51;26.50;90.80
38209;DHT22;24016;52.102;11.584;2022-08-21T14:50:17;26.50;90.70
38209;DHT22;24016;52.102;11.584;2022-08-21T14:52:42;26.20;90.70
38209;DHT22;24016;52.102;11.584;2022-08-21T14:55:11;26.00;90.70
38209;DHT22;24016;52.102;11.584;2022-08-21T14:57:45;25.90;91.10
38209;DHT22;24016;52.102;11.584;2022-08-21T15:00:14;26.00;91.20
38209;DHT22;24016;52.102;11.584;2022-08-21T15:02:39;25.90;90.60
38209;DHT22;24016;52.102;11.584;2022-08-21T15:05:06;25.90;91.90
38209;DHT22;24016;52.102;11.584;2022-08-21T15:07:31;25.80;91.30
38209;DHT22;24016;52.102;11.584;2022-08-21T15:09:57;25.70;91.30
38209;DHT22;24016;52.102;11.584;2022-08-21T15:12:24;25.50;91.40
38209;DHT22;24016;52.102;11.584;2022-08-21T15:14:49;25.20;92.10
38209;DHT22;24016;52.102;11.584;2022-08-21T15:17:15;25.10;91.70
38209;DHT22;24016;52.102;11.584;2022-08-21T15:19:41;24.90;92.30
38209;DHT22;24016;52.102;11.584;2022-08-21T15:22:07;24.70;92.30
38209;DHT22;24016;52.102;11.584;2022-08-21T15:24:33;24.70;92.50
38209;DHT22;24016;52.102;11.584;2022-08-21T15:27:00;24.70;93.50
38209;DHT22;24016;52.102;11.584;2022-08-21T15:29:28;24.70;92.80
38209;DHT22;24016;52.102;11.584;2022-08-21T15:31:56;24.70;92.90
38209;DHT22;24016;52.102;11.584;2022-08-21T15:34:23;24.70;93.90
38209;DHT22;24016;52.102;11.584;2022-08-21T15:36:50;24.60;93.70
38209;DHT22;24016;52.102;11.584;2022-08-21T15:39:16;24.60;93.90
38209;DHT22;24016;52.102;11.584;2022-08-21T15:41:43;24.60;93.30
38209;DHT22;24016;52.102;11.584;2022-08-21T15:44:10;24.60;93.10
38209;DHT22;24016;52.102;11.584;2022-08-21T15:46:38;24.60;93.50
38209;DHT22;24016;52.102;11.584;2022-08-21T15:49:04;24.60;93.50
38209;DHT22;24016;52.102;11.584;2022-08-21T15:51:29;24.40;94.20
38209;DHT22;24016;52.102;11.584;2022-08-21T15:53:55;24.30;94.20
38209;DHT22;24016;52.102;11.584;2022-08-21T15:56:24;24.30;93.90
38209;DHT22;24016;52.102;11.584;2022-08-21T15:58:52;24.30;94.30
38209;DHT22;24016;52.102;11.584;2022-08-21T16:01:20;24.30;93.30
38209;DHT22;24016;52.102;11.584;2022-08-21T16:03:48;24.50;92.90
38209;DHT22;24016;52.102;11.584;2022-08-21T16:06:14;24.60;93.20
38209;DHT22;24016;52.102;11.584;2022-08-21T16:08:40;24.70;93.80
38209;DHT22;24016;52.102;11.584;2022-08-21T16:11:05;24.60;93.40
38209;DHT22;24016;52.102;11.584;2022-08-21T16:13:39;24.70;94.20
38209;DHT22;24016;52.102;11.584;2022-08-21T16:16:05;24.80;92.80
38209;DHT22;24016;52.102;11.584;2022-08-21T16:18:31;24.90;93.40
38209;DHT22;24016;52.102;11.584;2022-08-21T16:20:57;24.90;93.80
38209;DHT22;24016;52.102;11.584;2022-08-21T16:23:23;25.00;92.30
38209;DHT22;24016;52.102;11.584;2022-08-21T16:25:48;25.00;92.10
38209;DHT22;24016;52.102;11.584;2022-08-21T16:28:17;25.00;92.40
38209;DHT22;24016;52.102;11.584;2022-08-21T16:30:47;24.90;92.50
38209;DHT22;24016;52.102;11.584;2022-08-21T16:33:30;24.90;93.20